sensor_id;sensor_type;location;lat;lon;timestamp;P1;durP1;ratioP1;P2;durP2;ratioP2
23718;SDS011;43322;52.230;5.702;2023-08-06T00:01:58;17.50;;;15.00;;
23718;SDS011;43322;52.230;5.702;2023-08-06T00:04:24;18.20;;;14.43;;
23718;SDS011;43322;52.230;5.702;2023-08-06T00:06:51;19.45;;;14.88;;
23718;SDS011;43322;52.230;5.702;2023-08-06T00:09:19;16.13;;;14.40;;
23718;SDS011;43322;52.230;5.702;2023-08-06T00:11:45;16.00;;;14.40;;
23718;SDS011;43322;52.230;5.702;2023-08-06T00:14:12;18.70;;;16.63;;
23718;SDS011;43322;52.230;5.702;2023-08-06T00:16:42;18.40;;;15.70;;
23718;SDS011;43322;52.230;5.702;2023-08-06T00:19:09;19.50;;;14.82;;
23718;SDS011;43322;52.230;5.702;2023-08-06T00:21:36;17.67;;;15.73;;
23718;SDS011;43322;52.230;5.702;2023-08-06T00:24:03;15.48;;;13.80;;
23718;SDS011;43322;52.230;5.702;2023-08-06T00:26:31;16.45;;;13.35;;
23718;SDS011;43322;52.230;5.702;2023-08-06T00:28:58;19.83;;;15.57;;
23718;SDS011;43322;52.230;5.702;2023-08-06T00:31:24;16.35;;;14.65;;
23718;SDS011;43322;52.230;5.702;2023-08-06T00:33:51;16.75;;;14.77;;
23718;SDS011;43322;52.230;5.702;2023-08-06T00:36:18;17.65;;;13.88;;
23718;SDS011;43322;52.230;5.702;2023-08-06T00:38:44;15.70;;;13.85;;
23718;SDS011;43322;52.230;5.702;2023-08-06T00:41:11;18.15;;;14.77;;
23718;SDS011;43322;52.230;5.702;2023-08-06T00:43:39;19.92;;;14.70;;
23718;SDS011;43322;52.230;5.702;2023-08-06T00:46:05;19.55;;;14.75;;
23718;SDS011;43322;52.230;5.702;2023-08-06T00:48:32;14.98;;;13.43;;
23718;SDS011;43322;52.230;5.702;2023-08-06T00:50:59;15.00;;;13.55;;
23718;SDS011;43322;52.230;5.702;2023-08-06T00:53:27;16.85;;;13.95;;
23718;SDS011;43322;52.230;5.702;2023-08-06T00:55:54;15.38;;;13.15;;
23718;SDS011;43322;52.230;5.702;2023-08-06T00:58:20;17.02;;;12.73;;
23718;SDS011;43322;52.230;5.702;2023-08-06T01:00:49;14.95;;;13.35;;
23718;SDS011;43322;52.230;5.702;2023-08-06T01:03:15;14.35;;;12.85;;
23718;SDS011;43322;52.230;5.702;2023-08-06T01:05:42;19.80;;;14.48;;
23718;SDS011;43322;52.230;5.702;2023-08-06T01:08:12;14.98;;;12.73;;
23718;SDS011;43322;52.230;5.702;2023-08-06T01:10:48;16.35;;;13.90;;
23718;SDS011;43322;52.230;5.702;2023-08-06T01:13:23;16.55;;;14.20;;
23718;SDS011;43322;52.230;5.702;2023-08-06T01:15:56;14.90;;;13.40;;
23718;SDS011;43322;52.230;5.702;2023-08-06T01:18:25;17.25;;;13.63;;
23718;SDS011;43322;52.230;5.702;2023-08-06T01:20:53;16.27;;;14.57;;
23718;SDS011;43322;52.230;5.702;2023-08-06T01:23:20;20.00;;;14.45;;
23718;SDS011;43322;52.230;5.702;2023-08-06T01:25:48;17.52;;;15.45;;
23718;SDS011;43322;52.230;5.702;2023-08-06T01:28:23;19.35;;;15.18;;
23718;SDS011;43322;52.230;5.702;2023-08-06T01:30:56;21.45;;;14.93;;
23718;SDS011;43322;52.230;5.702;2023-08-06T01:33:28;17.30;;;15.05;;
23718;SDS011;43322;52.230;5.702;2023-08-06T01:35:59;17.02;;;15.23;;
23718;SDS011;43322;52.230;5.702;2023-08-06T01:38:27;19.85;;;14.80;;
23718;SDS011;43322;52.230;5.702;2023-08-06T01:40:54;17.60;;;14.77;;
23718;SDS011;43322;52.230;5.702;2023-08-06T01:43:21;18.10;;;15.48;;
23718;SDS011;43322;52.230;5.702;2023-08-06T01:45:47;18.30;;;15.98;;
23718;SDS011;43322;52.230;5.702;2023-08-06T01:48:14;19.10;;;15.85;;
23718;SDS011;43322;52.230;5.702;2023-08-06T01:50:41;21.65;;;18.38;;
23718;SDS011;43322;52.230;5.702;2023-08-06T01:53:08;22.58;;;16.80;;
23718;SDS011;43322;52.230;5.702;2023-08-06T01:55:35;19.27;;;16.70;;
23718;SDS011;43322;52.230;5.702;2023-08-06T01:58:02;19.42;;;15.90;;
23718;SDS011;43322;52.230;5.702;2023-08-06T02:00:28;24.92;;;18.45;;
23718;SDS011;43322;52.230;5.702;2023-08-06T02:02:55;22.55;;;17.63;;
23718;SDS011;43322;52.230;5.702;2023-08-06T02:05:22;21.02;;;18.02;;
23718;SDS011;43322;52.230;5.702;2023-08-06T02:07:48;20.38;;;16.20;;
23718;SDS011;43322;52.230;5.702;2023-08-06T02:10:16;22.30;;;17.50;;
23718;SDS011;43322;52.230;5.702;2023-08-06T02:12:43;19.20;;;16.77;;
23718;SDS011;43322;52.230;5.702;2023-08-06T02:15:09;21.13;;;17.63;;
23718;SDS011;43322;52.230;5.702;2023-08-06T02:17:36;20.05;;;17.13;;
23718;SDS011;43322;52.230;5.702;2023-08-06T02:20:03;19.30;;;16.00;;
23718;SDS011;43322;52.230;5.702;2023-08-06T02:22:31;21.33;;;17.13;;
23718;SDS011;43322;52.230;5.702;2023-08-06T02:24:58;18.88;;;16.73;;
23718;SDS011;43322;52.230;5.702;2023-08-06T02:27:26;20.00;;;16.65;;
23718;SDS011;43322;52.230;5.702;2023-08-06T02:29:53;19.65;;;15.60;;
23718;SDS011;43322;52.230;5.702;2023-08-06T02:32:19;17.65;;;15.23;;
23718;SDS011;43322;52.230;5.702;2023-08-06T02:34:46;23.13;;;16.63;;
23718;SDS011;43322;52.230;5.702;2023-08-06T02:37:13;21.60;;;17.45;;
23718;SDS011;43322;52.230;5.702;2023-08-06T02:39:39;18.63;;;15.85;;
23718;SDS011;43322;52.230;5.702;2023-08-06T02:42:06;20.88;;;16.83;;
23718;SDS011;43322;52.230;5.702;2023-08-06T02:44:34;18.48;;;16.48;;
23718;SDS011;43322;52.230;5.702;2023-08-06T02:47:01;19.40;;;16.48;;
23718;SDS011;43322;52.230;5.702;2023-08-06T02:49:28;18.63;;;16.27;;
23718;SDS011;43322;52.230;5.702;2023-08-06T02:51:55;21.05;;;16.58;;
23718;SDS011;43322;52.230;5.702;2023-08-06T02:54:21;20.48;;;16.45;;
23718;SDS011;43322;52.230;5.702;2023-08-06T02:56:48;22.42;;;17.83;;
23718;SDS011;43322;52.230;5.702;2023-08-06T02:59:15;21.30;;;17.70;;
23718;SDS011;43322;52.230;5.702;2023-08-06T03:01:43;20.58;;;17.85;;
23718;SDS011;43322;52.230;5.702;2023-08-06T03:04:09;21.38;;;18.38;;
23718;SDS011;43322;52.230;5.702;2023-08-06T03:06:36;26.67;;;18.45;;
23718;SDS011;43322;52.230;5.702;2023-08-06T03:09:02;24.52;;;18.63;;
23718;SDS011;43322;52.230;5.702;2023-08-06T03:11:29;27.02;;;18.88;;
23718;SDS011;43322;52.230;5.702;2023-08-06T03:13:56;25.73;;;19.75;;
23718;SDS011;43322;52.230;5.702;2023-08-06T03:16:22;23.90;;;19.88;;
23718;SDS011;43322;52.230;5.702;2023-08-06T03:18:50;25.75;;;18.92;;
23718;SDS011;43322;52.230;5.702;2023-08-06T03:21:17;21.38;;;18.48;;
23718;SDS011;43322;52.230;5.702;2023-08-06T03:23:46;20.40;;;18.02;;
23718;SDS011;43322;52.230;5.702;2023-08-06T03:26:13;22.45;;;16.92;;
23718;SDS011;43322;52.230;5.702;2023-08-06T03:28:39;28.73;;;18.73;;
23718;SDS011;43322;52.230;5.702;2023-08-06T03:31:06;21.67;;;18.83;;
23718;SDS011;43322;52.230;5.702;2023-08-06T03:33:33;23.38;;;19.50;;
23718;SDS011;43322;52.230;5.702;2023-08-06T03:36:00;20.65;;;18.30;;
23718;SDS011;43322;52.230;5.702;2023-08-06T03:38:27;28.92;;;21.75;;
23718;SDS011;43322;52.230;5.702;2023-08-06T03:40:54;22.83;;;19.10;;
23718;SDS011;43322;52.230;5.702;2023-08-06T03:43:20;24.42;;;18.73;;
23718;SDS011;43322;52.230;5.702;2023-08-06T03:45:47;23.65;;;19.40;;
23718;SDS011;43322;52.230;5.702;2023-08-06T03:48:14;24.88;;;20.23;;
23718;SDS011;43322;52.230;5.702;2023-08-06T03:50:40;25.38;;;20.10;;
23718;SDS011;43322;52.230;5.702;2023-08-06T03:53:08;25.45;;;20.27;;
23718;SDS011;43322;52.230;5.702;2023-08-06T03:55:35;22.40;;;19.17;;
23718;SDS011;43322;52.230;5.702;2023-08-06T03:58:02;19.13;;;17.13;;
23718;SDS011;43322;52.230;5.702;2023-08-06T04:00:28;21.75;;;18.88;;
23718;SDS011;43322;52.230;5.702;2023-08-06T04:02:55;21.00;;;18.67;;
23718;SDS011;43322;52.230;5.702;2023-08-06T04:05:22;22.60;;;17.27;;
23718;SDS011;43322;52.230;5.702;2023-08-06T04:07:48;19.73;;;17.55;;
23718;SDS011;43322;52.230;5.702;2023-08-06T04:10:16;20.13;;;17.55;;
23718;SDS011;43322;52.230;5.702;2023-08-06T04:12:46;21.80;;;17.63;;
23718;SDS011;43322;52.230;5.702;2023-08-06T04:15:13;21.88;;;17.40;;
23718;SDS011;43322;52.230;5.702;2023-08-06T04:17:39;17.27;;;15.52;;
23718;SDS011;43322;52.230;5.702;2023-08-06T04:20:06;20.38;;;17.70;;
23718;SDS011;43322;52.230;5.702;2023-08-06T04:22:33;16.95;;;15.27;;
23718;SDS011;43322;52.230;5.702;2023-08-06T04:25:00;18.75;;;16.50;;
23718;SDS011;43322;52.230;5.702;2023-08-06T04:27:28;19.90;;;16.75;;
23718;SDS011;43322;52.230;5.702;2023-08-06T04:29:55;18.20;;;16.30;;
23718;SDS011;43322;52.230;5.702;2023-08-06T04:32:22;20.40;;;18.27;;
23718;SDS011;43322;52.230;5.702;2023-08-06T04:34:48;20.25;;;17.98;;
23718;SDS011;43322;52.230;5.702;2023-08-06T04:37:15;19.23;;;15.95;;
23718;SDS011;43322;52.230;5.702;2023-08-06T04:39:44;22.27;;;17.98;;
23718;SDS011;43322;52.230;5.702;2023-08-06T04:42:10;17.73;;;15.80;;
23718;SDS011;43322;52.230;5.702;2023-08-06T04:44:39;19.30;;;15.93;;
23718;SDS011;43322;52.230;5.702;2023-08-06T04:47:05;18.92;;;16.92;;
23718;SDS011;43322;52.230;5.702;2023-08-06T04:49:32;17.33;;;15.52;;
23718;SDS011;43322;52.230;5.702;2023-08-06T04:51:58;17.13;;;15.25;;
23718;SDS011;43322;52.230;5.702;2023-08-06T04:54:25;18.05;;;15.90;;
23718;SDS011;43322;52.230;5.702;2023-08-06T04:56:52;17.30;;;15.50;;
23718;SDS011;43322;52.230;5.702;2023-08-06T04:59:18;19.88;;;16.48;;
23718;SDS011;43322;52.230;5.702;2023-08-06T05:01:46;17.73;;;15.90;;
23718;SDS011;43322;52.230;5.702;2023-08-06T05:04:13;17.15;;;15.35;;
23718;SDS011;43322;52.230;5.702;2023-08-06T05:06:39;16.88;;;14.90;;
23718;SDS011;43322;52.230;5.702;2023-08-06T05:09:06;16.45;;;14.77;;
23718;SDS011;43322;52.230;5.702;2023-08-06T05:11:33;18.38;;;15.43;;
23718;SDS011;43322;52.230;5.702;2023-08-06T05:14:00;17.42;;;15.63;;
23718;SDS011;43322;52.230;5.702;2023-08-06T05:16:26;18.65;;;16.08;;
23718;SDS011;43322;52.230;5.702;2023-08-06T05:18:54;16.92;;;14.50;;
23718;SDS011;43322;52.230;5.702;2023-08-06T05:21:21;16.80;;;15.05;;
23718;SDS011;43322;52.230;5.702;2023-08-06T05:23:47;17.10;;;15.35;;
23718;SDS011;43322;52.230;5.702;2023-08-06T05:26:14;16.33;;;14.63;;
23718;SDS011;43322;52.230;5.702;2023-08-06T05:28:43;22.65;;;14.93;;
23718;SDS011;43322;52.230;5.702;2023-08-06T05:31:10;16.50;;;14.77;;
23718;SDS011;43322;52.230;5.702;2023-08-06T05:33:36;16.98;;;14.23;;
23718;SDS011;43322;52.230;5.702;2023-08-06T05:36:05;16.58;;;14.02;;
23718;SDS011;43322;52.230;5.702;2023-08-06T05:38:31;15.75;;;13.85;;
23718;SDS011;43322;52.230;5.702;2023-08-06T05:40:58;15.35;;;13.57;;
23718;SDS011;43322;52.230;5.702;2023-08-06T05:43:25;14.88;;;13.38;;
23718;SDS011;43322;52.230;5.702;2023-08-06T05:45:51;16.85;;;13.77;;
23718;SDS011;43322;52.230;5.702;2023-08-06T05:48:18;14.30;;;12.75;;
23718;SDS011;43322;52.230;5.702;2023-08-06T05:50:45;15.10;;;13.43;;
23718;SDS011;43322;52.230;5.702;2023-08-06T05:53:13;15.70;;;13.43;;
23718;SDS011;43322;52.230;5.702;2023-08-06T05:55:39;14.73;;;13.20;;
23718;SDS011;43322;52.230;5.702;2023-08-06T05:58:06;14.02;;;12.52;;
23718;SDS011;43322;52.230;5.702;2023-08-06T06:00:33;14.32;;;12.82;;
23718;SDS011;43322;52.230;5.702;2023-08-06T06:03:00;13.82;;;12.43;;
23718;SDS011;43322;52.230;5.702;2023-08-06T06:05:27;14.38;;;12.98;;
23718;SDS011;43322;52.230;5.702;2023-08-06T06:07:54;16.08;;;13.00;;
23718;SDS011;43322;52.230;5.702;2023-08-06T06:10:22;12.63;;;11.32;;
23718;SDS011;43322;52.230;5.702;2023-08-06T06:12:48;12.50;;;11.20;;
23718;SDS011;43322;52.230;5.702;2023-08-06T06:15:15;13.73;;;12.32;;
23718;SDS011;43322;52.230;5.702;2023-08-06T06:17:42;13.75;;;11.93;;
23718;SDS011;43322;52.230;5.702;2023-08-06T06:20:09;13.00;;;11.70;;
23718;SDS011;43322;52.230;5.702;2023-08-06T06:22:36;12.43;;;11.25;;
23718;SDS011;43322;52.230;5.702;2023-08-06T06:25:02;10.75;;;9.75;;
23718;SDS011;43322;52.230;5.702;2023-08-06T06:27:31;11.52;;;10.40;;
23718;SDS011;43322;52.230;5.702;2023-08-06T06:29:58;12.82;;;11.52;;
23718;SDS011;43322;52.230;5.702;2023-08-06T06:32:25;14.02;;;12.48;;
23718;SDS011;43322;52.230;5.702;2023-08-06T06:34:51;12.27;;;10.98;;
23718;SDS011;43322;52.230;5.702;2023-08-06T06:37:18;12.50;;;11.30;;
23718;SDS011;43322;52.230;5.702;2023-08-06T06:39:45;12.02;;;10.82;;
23718;SDS011;43322;52.230;5.702;2023-08-06T06:42:11;14.65;;;11.05;;
23718;SDS011;43322;52.230;5.702;2023-08-06T06:44:41;12.52;;;11.32;;
23718;SDS011;43322;52.230;5.702;2023-08-06T06:47:08;11.32;;;10.27;;
23718;SDS011;43322;52.230;5.702;2023-08-06T06:49:34;11.05;;;10.05;;
23718;SDS011;43322;52.230;5.702;2023-08-06T06:52:01;9.63;;;8.82;;
23718;SDS011;43322;52.230;5.702;2023-08-06T06:54:28;9.85;;;8.95;;
23718;SDS011;43322;52.230;5.702;2023-08-06T06:56:54;10.75;;;9.75;;
23718;SDS011;43322;52.230;5.702;2023-08-06T06:59:21;10.73;;;9.73;;
23718;SDS011;43322;52.230;5.702;2023-08-06T07:01:49;9.77;;;8.57;;
23718;SDS011;43322;52.230;5.702;2023-08-06T07:04:15;8.25;;;7.55;;
23718;SDS011;43322;52.230;5.702;2023-08-06T07:06:42;7.57;;;6.97;;
23718;SDS011;43322;52.230;5.702;2023-08-06T07:09:09;6.20;;;5.82;;
23718;SDS011;43322;52.230;5.702;2023-08-06T07:11:35;8.55;;;7.72;;
23718;SDS011;43322;52.230;5.702;2023-08-06T07:14:02;8.50;;;7.43;;
23718;SDS011;43322;52.230;5.702;2023-08-06T07:16:29;8.05;;;7.45;;
23718;SDS011;43322;52.230;5.702;2023-08-06T07:18:57;7.30;;;6.80;;
23718;SDS011;43322;52.230;5.702;2023-08-06T07:21:23;7.50;;;6.90;;
23718;SDS011;43322;52.230;5.702;2023-08-06T07:23:50;8.82;;;8.10;;
23718;SDS011;43322;52.230;5.702;2023-08-06T07:26:17;8.05;;;7.35;;
23718;SDS011;43322;52.230;5.702;2023-08-06T07:28:43;7.45;;;6.78;;
23718;SDS011;43322;52.230;5.702;2023-08-06T07:31:10;7.30;;;6.70;;
23718;SDS011;43322;52.230;5.702;2023-08-06T07:33:37;7.07;;;6.47;;
23718;SDS011;43322;52.230;5.702;2023-08-06T07:36:09;7.30;;;6.80;;
23718;SDS011;43322;52.230;5.702;2023-08-06T07:38:37;7.15;;;6.60;;
23718;SDS011;43322;52.230;5.702;2023-08-06T07:41:03;7.03;;;6.53;;
23718;SDS011;43322;52.230;5.702;2023-08-06T07:43:30;6.38;;;5.97;;
23718;SDS011;43322;52.230;5.702;2023-08-06T07:45:57;7.35;;;6.90;;
23718;SDS011;43322;52.230;5.702;2023-08-06T07:48:25;6.28;;;5.88;;
23718;SDS011;43322;52.230;5.702;2023-08-06T07:50:51;7.13;;;6.63;;
23718;SDS011;43322;52.230;5.702;2023-08-06T07:53:20;7.18;;;6.68;;
23718;SDS011;43322;52.230;5.702;2023-08-06T07:55:48;9.50;;;8.70;;
23718;SDS011;43322;52.230;5.702;2023-08-06T07:58:16;8.30;;;7.68;;
23718;SDS011;43322;52.230;5.702;2023-08-06T08:00:42;12.85;;;11.23;;
23718;SDS011;43322;52.230;5.702;2023-08-06T08:03:10;10.40;;;9.50;;
23718;SDS011;43322;52.230;5.702;2023-08-06T08:05:37;10.63;;;9.63;;
23718;SDS011;43322;52.230;5.702;2023-08-06T08:08:04;13.38;;;12.07;;
23718;SDS011;43322;52.230;5.702;2023-08-06T08:10:32;12.85;;;11.65;;
23718;SDS011;43322;52.230;5.702;2023-08-06T08:12:59;14.90;;;13.50;;
23718;SDS011;43322;52.230;5.702;2023-08-06T08:15:28;14.68;;;13.27;;
23718;SDS011;43322;52.230;5.702;2023-08-06T08:17:55;18.00;;;16.00;;
23718;SDS011;43322;52.230;5.702;2023-08-06T08:20:22;14.48;;;13.02;;
23718;SDS011;43322;52.230;5.702;2023-08-06T08:22:49;15.32;;;13.82;;
23718;SDS011;43322;52.230;5.702;2023-08-06T08:25:16;15.55;;;14.05;;
23718;SDS011;43322;52.230;5.702;2023-08-06T08:27:44;17.40;;;15.65;;
23718;SDS011;43322;52.230;5.702;2023-08-06T08:30:11;18.67;;;16.77;;
23718;SDS011;43322;52.230;5.702;2023-08-06T08:32:37;17.70;;;15.73;;
23718;SDS011;43322;52.230;5.702;2023-08-06T08:35:04;17.73;;;15.93;;
23718;SDS011;43322;52.230;5.702;2023-08-06T08:37:31;22.90;;;20.50;;
23718;SDS011;43322;52.230;5.702;2023-08-06T08:39:58;23.73;;;20.42;;
23718;SDS011;43322;52.230;5.702;2023-08-06T08:42:25;23.33;;;19.98;;
23718;SDS011;43322;52.230;5.702;2023-08-06T08:44:54;25.17;;;21.33;;
23718;SDS011;43322;52.230;5.702;2023-08-06T08:47:21;25.80;;;21.35;;
23718;SDS011;43322;52.230;5.702;2023-08-06T08:49:49;24.35;;;21.00;;
23718;SDS011;43322;52.230;5.702;2023-08-06T08:52:20;27.48;;;21.25;;
23718;SDS011;43322;52.230;5.702;2023-08-06T08:54:48;28.90;;;23.33;;
23718;SDS011;43322;52.230;5.702;2023-08-06T08:57:18;29.85;;;23.90;;
23718;SDS011;43322;52.230;5.702;2023-08-06T08:59:44;27.92;;;23.40;;
23718;SDS011;43322;52.230;5.702;2023-08-06T09:02:13;32.95;;;24.58;;
23718;SDS011;43322;52.230;5.702;2023-08-06T09:04:41;27.38;;;21.38;;
23718;SDS011;43322;52.230;5.702;2023-08-06T09:07:10;25.20;;;20.63;;
23718;SDS011;43322;52.230;5.702;2023-08-06T09:09:42;33.30;;;26.30;;
23718;SDS011;43322;52.230;5.702;2023-08-06T09:12:13;27.80;;;22.13;;
23718;SDS011;43322;52.230;5.702;2023-08-06T09:14:41;26.70;;;22.25;;
23718;SDS011;43322;52.230;5.702;2023-08-06T09:17:08;26.90;;;22.00;;
23718;SDS011;43322;52.230;5.702;2023-08-06T09:19:37;28.83;;;23.10;;
23718;SDS011;43322;52.230;5.702;2023-08-06T09:22:03;29.65;;;23.50;;
23718;SDS011;43322;52.230;5.702;2023-08-06T09:24:37;28.15;;;21.98;;
23718;SDS011;43322;52.230;5.702;2023-08-06T09:27:04;30.45;;;23.35;;
23718;SDS011;43322;52.230;5.702;2023-08-06T09:29:31;26.48;;;22.15;;
23718;SDS011;43322;52.230;5.702;2023-08-06T09:31:58;22.67;;;19.98;;
23718;SDS011;43322;52.230;5.702;2023-08-06T09:34:25;27.45;;;22.27;;
23718;SDS011;43322;52.230;5.702;2023-08-06T09:36:53;23.20;;;20.77;;
23718;SDS011;43322;52.230;5.702;2023-08-06T09:39:21;27.52;;;23.30;;
23718;SDS011;43322;52.230;5.702;2023-08-06T09:41:55;24.63;;;22.02;;
23718;SDS011;43322;52.230;5.702;2023-08-06T09:44:23;23.23;;;20.60;;
23718;SDS011;43322;52.230;5.702;2023-08-06T09:46:51;24.25;;;19.25;;
23718;SDS011;43322;52.230;5.702;2023-08-06T09:49:20;23.02;;;19.88;;
23718;SDS011;43322;52.230;5.702;2023-08-06T09:51:48;24.80;;;20.58;;
23718;SDS011;43322;52.230;5.702;2023-08-06T09:54:19;23.88;;;20.95;;
23718;SDS011;43322;52.230;5.702;2023-08-06T09:56:46;26.05;;;23.00;;
23718;SDS011;43322;52.230;5.702;2023-08-06T09:59:14;27.17;;;22.75;;
23718;SDS011;43322;52.230;5.702;2023-08-06T10:01:41;26.15;;;23.35;;
23718;SDS011;43322;52.230;5.702;2023-08-06T10:04:08;22.92;;;20.30;;
23718;SDS011;43322;52.230;5.702;2023-08-06T10:06:36;24.08;;;20.90;;
23718;SDS011;43322;52.230;5.702;2023-08-06T10:09:03;25.85;;;23.10;;
23718;SDS011;43322;52.230;5.702;2023-08-06T10:11:32;24.50;;;21.75;;
23718;SDS011;43322;52.230;5.702;2023-08-06T10:14:00;25.40;;;22.35;;
23718;SDS011;43322;52.230;5.702;2023-08-06T10:16:32;26.77;;;23.98;;
23718;SDS011;43322;52.230;5.702;2023-08-06T10:19:00;24.73;;;22.17;;
23718;SDS011;43322;52.230;5.702;2023-08-06T10:21:29;26.58;;;23.10;;
23718;SDS011;43322;52.230;5.702;2023-08-06T10:23:57;24.17;;;21.58;;
23718;SDS011;43322;52.230;5.702;2023-08-06T10:26:27;23.67;;;21.23;;
23718;SDS011;43322;52.230;5.702;2023-08-06T10:28:55;26.63;;;23.90;;
23718;SDS011;43322;52.230;5.702;2023-08-06T10:34:20;22.25;;;20.05;;
23718;SDS011;43322;52.230;5.702;2023-08-06T10:36:47;25.02;;;22.40;;
23718;SDS011;43322;52.230;5.702;2023-08-06T10:39:14;21.20;;;19.05;;
23718;SDS011;43322;52.230;5.702;2023-08-06T10:41:41;24.15;;;21.70;;
23718;SDS011;43322;52.230;5.702;2023-08-06T10:44:10;21.80;;;19.48;;
23718;SDS011;43322;52.230;5.702;2023-08-06T10:46:37;22.45;;;20.25;;
23718;SDS011;43322;52.230;5.702;2023-08-06T10:49:04;21.42;;;19.23;;
23718;SDS011;43322;52.230;5.702;2023-08-06T10:51:32;12.50;;;11.30;;
23718;SDS011;43322;52.230;5.702;2023-08-06T10:53:59;8.15;;;7.47;;
23718;SDS011;43322;52.230;5.702;2023-08-06T10:56:25;8.25;;;6.13;;
23718;SDS011;43322;52.230;5.702;2023-08-06T10:58:53;4.00;;;3.60;;
23718;SDS011;43322;52.230;5.702;2023-08-06T11:01:22;3.20;;;2.92;;
23718;SDS011;43322;52.230;5.702;2023-08-06T11:03:49;3.40;;;3.08;;
23718;SDS011;43322;52.230;5.702;2023-08-06T11:06:18;2.80;;;2.60;;
23718;SDS011;43322;52.230;5.702;2023-08-06T11:08:47;2.67;;;2.40;;
23718;SDS011;43322;52.230;5.702;2023-08-06T11:11:15;2.80;;;2.60;;
23718;SDS011;43322;52.230;5.702;2023-08-06T11:13:44;2.63;;;2.42;;
23718;SDS011;43322;52.230;5.702;2023-08-06T11:16:12;2.88;;;2.75;;
23718;SDS011;43322;52.230;5.702;2023-08-06T11:18:40;3.28;;;3.05;;
23718;SDS011;43322;52.230;5.702;2023-08-06T11:21:07;4.57;;;3.47;;
23718;SDS011;43322;52.230;5.702;2023-08-06T11:23:34;3.67;;;3.45;;
23718;SDS011;43322;52.230;5.702;2023-08-06T11:26:01;4.22;;;3.88;;
23718;SDS011;43322;52.230;5.702;2023-08-06T11:28:28;3.83;;;3.40;;
23718;SDS011;43322;52.230;5.702;2023-08-06T11:30:55;3.67;;;3.45;;
23718;SDS011;43322;52.230;5.702;2023-08-06T11:33:26;3.85;;;3.55;;
23718;SDS011;43322;52.230;5.702;2023-08-06T11:35:56;5.97;;;3.47;;
23718;SDS011;43322;52.230;5.702;2023-08-06T11:38:24;7.55;;;3.72;;
23718;SDS011;43322;52.230;5.702;2023-08-06T11:40:51;4.45;;;3.97;;
23718;SDS011;43322;52.230;5.702;2023-08-06T11:43:18;4.20;;;4.00;;
23718;SDS011;43322;52.230;5.702;2023-08-06T11:45:47;5.25;;;4.30;;
23718;SDS011;43322;52.230;5.702;2023-08-06T11:48:14;4.25;;;3.95;;
23718;SDS011;43322;52.230;5.702;2023-08-06T11:50:41;4.40;;;4.10;;
23718;SDS011;43322;52.230;5.702;2023-08-06T11:53:11;4.35;;;3.85;;
23718;SDS011;43322;52.230;5.702;2023-08-06T11:55:39;3.03;;;2.83;;
23718;SDS011;43322;52.230;5.702;2023-08-06T11:58:08;3.88;;;3.58;;
23718;SDS011;43322;52.230;5.702;2023-08-06T12:00:36;3.80;;;3.60;;
23718;SDS011;43322;52.230;5.702;2023-08-06T12:03:04;4.00;;;3.63;;
23718;SDS011;43322;52.230;5.702;2023-08-06T12:05:31;4.15;;;3.85;;
23718;SDS011;43322;52.230;5.702;2023-08-06T12:07:59;3.85;;;3.55;;
23718;SDS011;43322;52.230;5.702;2023-08-06T12:10:28;4.65;;;4.35;;
23718;SDS011;43322;52.230;5.702;2023-08-06T12:12:56;4.68;;;4.32;;
23718;SDS011;43322;52.230;5.702;2023-08-06T12:15:22;5.32;;;5.03;;
23718;SDS011;43322;52.230;5.702;2023-08-06T12:17:49;4.75;;;4.45;;
23718;SDS011;43322;52.230;5.702;2023-08-06T12:20:16;5.97;;;5.55;;
23718;SDS011;43322;52.230;5.702;2023-08-06T12:22:43;5.53;;;5.13;;
23718;SDS011;43322;52.230;5.702;2023-08-06T12:25:11;5.65;;;5.13;;
23718;SDS011;43322;52.230;5.702;2023-08-06T12:27:40;5.30;;;4.90;;
23718;SDS011;43322;52.230;5.702;2023-08-06T12:30:08;5.13;;;4.60;;
23718;SDS011;43322;52.230;5.702;2023-08-06T12:32:36;5.18;;;4.85;;
23718;SDS011;43322;52.230;5.702;2023-08-06T12:35:03;4.55;;;4.15;;
23718;SDS011;43322;52.230;5.702;2023-08-06T12:37:32;3.95;;;3.60;;
23718;SDS011;43322;52.230;5.702;2023-08-06T12:39:59;3.80;;;3.60;;
23718;SDS011;43322;52.230;5.702;2023-08-06T12:42:25;3.47;;;3.33;;
23718;SDS011;43322;52.230;5.702;2023-08-06T12:44:53;3.83;;;3.53;;
23718;SDS011;43322;52.230;5.702;2023-08-06T12:47:20;3.20;;;3.00;;
23718;SDS011;43322;52.230;5.702;2023-08-06T12:49:47;3.35;;;3.15;;
23718;SDS011;43322;52.230;5.702;2023-08-06T12:52:14;3.83;;;3.60;;
23718;SDS011;43322;52.230;5.702;2023-08-06T12:54:41;4.10;;;3.80;;
23718;SDS011;43322;52.230;5.702;2023-08-06T12:57:08;4.53;;;4.22;;
23718;SDS011;43322;52.230;5.702;2023-08-06T12:59:35;6.82;;;4.60;;
23718;SDS011;43322;52.230;5.702;2023-08-06T13:02:03;5.25;;;4.85;;
23718;SDS011;43322;52.230;5.702;2023-08-06T13:04:30;4.95;;;4.65;;
23718;SDS011;43322;52.230;5.702;2023-08-06T13:06:59;5.65;;;5.15;;
23718;SDS011;43322;52.230;5.702;2023-08-06T13:09:25;7.57;;;5.35;;
23718;SDS011;43322;52.230;5.702;2023-08-06T13:11:52;5.50;;;5.03;;
23718;SDS011;43322;52.230;5.702;2023-08-06T13:14:19;4.65;;;4.35;;
23718;SDS011;43322;52.230;5.702;2023-08-06T13:16:46;4.97;;;4.60;;
23718;SDS011;43322;52.230;5.702;2023-08-06T13:19:14;5.90;;;5.25;;
23718;SDS011;43322;52.230;5.702;2023-08-06T13:21:58;6.03;;;5.50;;
23718;SDS011;43322;52.230;5.702;2023-08-06T13:24:28;5.75;;;5.25;;
23718;SDS011;43322;52.230;5.702;2023-08-06T13:26:55;5.43;;;4.93;;
23718;SDS011;43322;52.230;5.702;2023-08-06T13:29:21;5.65;;;4.95;;
23718;SDS011;43322;52.230;5.702;2023-08-06T13:31:48;6.00;;;5.32;;
23718;SDS011;43322;52.230;5.702;2023-08-06T13:34:16;5.43;;;5.03;;
23718;SDS011;43322;52.230;5.702;2023-08-06T13:36:42;6.53;;;6.05;;
23718;SDS011;43322;52.230;5.702;2023-08-06T13:39:09;6.90;;;6.20;;
23718;SDS011;43322;52.230;5.702;2023-08-06T13:41:37;6.82;;;6.32;;
23718;SDS011;43322;52.230;5.702;2023-08-06T13:44:04;6.88;;;6.18;;
23718;SDS011;43322;52.230;5.702;2023-08-06T13:46:31;7.80;;;7.03;;
23718;SDS011;43322;52.230;5.702;2023-08-06T13:48:58;7.03;;;6.43;;
23718;SDS011;43322;52.230;5.702;2023-08-06T13:51:26;7.50;;;6.80;;
23718;SDS011;43322;52.230;5.702;2023-08-06T13:53:53;6.97;;;6.45;;
23718;SDS011;43322;52.230;5.702;2023-08-06T13:56:21;8.48;;;7.13;;
23718;SDS011;43322;52.230;5.702;2023-08-06T13:58:48;8.60;;;7.72;;
23718;SDS011;43322;52.230;5.702;2023-08-06T14:01:16;8.40;;;7.57;;
23718;SDS011;43322;52.230;5.702;2023-08-06T14:03:43;8.50;;;7.25;;
23718;SDS011;43322;52.230;5.702;2023-08-06T14:06:10;9.43;;;8.43;;
23718;SDS011;43322;52.230;5.702;2023-08-06T14:08:38;7.70;;;6.90;;
23718;SDS011;43322;52.230;5.702;2023-08-06T14:11:05;8.15;;;7.35;;
23718;SDS011;43322;52.230;5.702;2023-08-06T14:13:32;8.75;;;7.85;;
23718;SDS011;43322;52.230;5.702;2023-08-06T14:15:58;8.05;;;7.28;;
23718;SDS011;43322;52.230;5.702;2023-08-06T14:18:25;8.55;;;7.55;;
23718;SDS011;43322;52.230;5.702;2023-08-06T14:20:52;8.80;;;7.75;;
23718;SDS011;43322;52.230;5.702;2023-08-06T14:23:19;7.40;;;6.80;;
23718;SDS011;43322;52.230;5.702;2023-08-06T14:25:47;7.68;;;6.85;;
23718;SDS011;43322;52.230;5.702;2023-08-06T14:28:14;11.93;;;8.20;;
23718;SDS011;43322;52.230;5.702;2023-08-06T14:30:40;8.40;;;7.57;;
23718;SDS011;43322;52.230;5.702;2023-08-06T14:33:07;9.02;;;7.38;;
23718;SDS011;43322;52.230;5.702;2023-08-06T14:35:34;10.50;;;7.68;;